Time;durP1;ratioP1;P1;durP2;ratioP2;P2;SDS_P1;SDS_P2;PMS_P1;PMS_P2;Temp;Humidity;BMP_temperature;BMP_pressure;BME280_temperature;BME280_humidity;BME280_pressure;Samples;Min_cycle;Max_cycle;Signal;HPM_P1;HPM_P2
2022/03/28 00:00:22;;;;;;;99.72;15.88;;;;;;;4.76;100.00;102913.97;4990319;28;20034;-72
2022/03/28 00:02:47;;;;;;;114.28;16.17;;;;;;;4.76;100.00;102911.34;4990563;28;20045;-72
2022/03/28 00:05:14;;;;;;;81.72;17.25;;;;;;;4.76;100.00;102913.97;4990351;28;20033;-73
2022/03/28 00:07:40;;;;;;;67.00;15.27;;;;;;;4.77;100.00;102904.34;4992531;28;20787;-73
2022/03/28 00:10:06;;;;;;;108.60;15.63;;;;;;;4.73;100.00;102898.19;5005597;28;20033;-72
2022/03/28 00:12:33;;;;;;;74.75;15.75;;;;;;;4.74;100.00;102899.09;5005331;28;20029;-73
2022/03/28 00:14:59;;;;;;;58.25;17.10;;;;;;;4.77;100.00;102901.72;4990666;28;20045;-72
2022/03/28 00:17:24;;;;;;;35.00;14.77;;;;;;;4.78;100.00;102897.38;5004821;28;20037;-72
2022/03/28 00:19:50;;;;;;;40.67;16.02;;;;;;;4.78;100.00;102887.75;5005825;28;20484;-72
2022/03/28 00:22:15;;;;;;;55.38;16.15;;;;;;;4.79;100.00;102888.63;5004878;28;20438;-72
2022/03/28 00:24:41;;;;;;;94.57;16.65;;;;;;;4.76;100.00;102887.72;5004810;28;20491;-73
2022/03/28 00:27:06;;;;;;;45.75;16.02;;;;;;;4.73;100.00;102881.53;5006263;28;20038;-72
2022/03/28 00:29:32;;;;;;;47.08;15.32;;;;;;;4.72;100.00;102875.44;4988855;28;20038;-73
2022/03/28 00:31:57;;;;;;;60.92;16.48;;;;;;;4.74;100.00;102872.84;5006949;28;20033;-73
2022/03/28 00:34:23;;;;;;;64.00;17.10;;;;;;;4.76;100.00;102866.72;4987479;28;20029;-73
2022/03/28 00:36:52;;;;;;;56.38;17.75;;;;;;;4.75;100.00;102864.09;4989222;28;20041;-73
2022/03/28 00:39:21;;;;;;;64.85;17.40;;;;;;;4.73;100.00;102861.44;5004734;28;20047;-73
2022/03/28 00:41:51;;;;;;;57.75;17.38;;;;;;;4.72;100.00;102864.03;5006318;28;20104;-73
2022/03/28 00:44:17;;;;;;;41.47;16.23;;;;;;;4.73;100.00;102865.81;5004680;28;20033;-72
2022/03/28 00:46:42;;;;;;;78.55;17.38;;;;;;;4.70;100.00;102869.31;4988088;28;20033;-73
2022/03/28 00:49:08;;;;;;;47.22;17.65;;;;;;;4.68;100.00;102863.13;4990220;28;20029;-73
2022/03/28 00:51:34;;;;;;;43.20;16.85;;;;;;;4.68;100.00;102864.91;5005294;28;20030;-72
2022/03/28 00:54:01;;;;;;;40.22;18.10;;;;;;;4.66;100.00;102867.50;5006326;28;20066;-72
2022/03/28 00:56:27;;;;;;;40.85;18.80;;;;;;;4.65;100.00;102867.47;5005752;28;20103;-73
2022/03/28 00:58:52;;;;;;;37.80;17.75;;;;;;;4.64;100.00;102858.72;4987541;28;20525;-72
2022/03/28 01:01:18;;;;;;;38.80;17.50;;;;;;;4.66;100.00;102861.34;4988116;28;20556;-71
2022/03/28 01:03:43;;;;;;;41.20;16.40;;;;;;;4.67;100.00;102856.13;4989437;28;20440;-72
2022/03/28 01:06:09;;;;;;;39.60;17.30;;;;;;;4.67;100.00;102856.13;4971364;28;20631;-73
2022/03/28 01:08:35;;;;;;;37.08;16.52;;;;;;;4.68;100.00;102846.53;4977325;28;20388;-72
2022/03/28 01:11:12;;;;;;;31.38;15.45;;;;;;;4.69;100.00;102849.13;4991312;28;20033;-72
2022/03/28 01:13:40;;;;;;;33.50;15.35;;;;;;;4.68;100.00;102847.38;5005681;28;20045;-72
2022/03/28 01:16:07;;;;;;;39.20;16.30;;;;;;;4.66;100.00;102838.63;5003390;28;20267;-72
2022/03/28 01:18:33;;;;;;;34.88;15.82;;;;;;;4.65;100.00;102850.00;5006028;28;20116;-72
2022/03/28 01:21:03;;;;;;;30.33;14.85;;;;;;;4.64;100.00;102853.47;4988354;28;20033;-71
2022/03/28 01:23:29;;;;;;;36.80;16.45;;;;;;;4.62;100.00;102845.59;4987916;28;20041;-71
2022/03/28 01:25:56;;;;;;;32.08;16.30;;;;;;;4.62;100.00;102842.97;5006419;28;20428;-71
2022/03/28 01:28:24;;;;;;;31.50;16.13;;;;;;;4.61;100.00;102835.97;5004877;28;20076;-71
2022/03/28 01:30:50;;;;;;;36.83;16.17;;;;;;;4.61;100.00;102832.44;5005274;28;20034;-72
2022/03/28 01:33:16;;;;;;;42.80;16.35;;;;;;;4.61;100.00;102827.19;5003315;28;20600;-72
2022/03/28 01:35:43;;;;;;;25.83;15.43;;;;;;;4.58;100.00;102825.41;5005591;28;20041;-73
2022/03/28 01:38:11;;;;;;;30.27;15.40;;;;;;;4.56;100.00;102815.75;5008360;28;20303;-72
2022/03/28 01:40:49;;;;;;;34.53;16.00;;;;;;;4.54;100.00;102817.50;5007132;28;20409;-73
2022/03/28 01:43:15;;;;;;;31.00;14.77;;;;;;;4.52;100.00;102809.59;5006058;28;20061;-72
2022/03/28 01:45:40;;;;;;;27.58;15.85;;;;;;;4.54;100.00;102814.88;4988311;28;20029;-72
2022/03/28 01:48:08;;;;;;;32.85;16.42;;;;;;;4.54;100.00;102810.50;5005920;28;20348;-72
2022/03/28 01:50:33;;;;;;;30.13;16.27;;;;;;;4.54;100.00;102810.50;5007416;28;20194;-72
2022/03/28 01:52:59;;;;;;;32.40;16.13;;;;;;;4.51;100.00;102805.22;4976718;28;20040;-72
2022/03/28 01:55:25;;;;;;;29.63;16.17;;;;;;;4.51;100.00;102807.84;4989217;28;21471;-73
2022/03/28 01:57:52;;;;;;;38.33;17.15;;;;;;;4.53;100.00;102794.75;5005615;28;20088;-72
2022/03/28 02:00:19;;;;;;;28.40;15.90;;;;;;;4.53;100.00;102800.84;4993426;28;20120;-73
2022/03/28 02:02:48;;;;;;;27.75;15.48;;;;;;;4.51;100.00;102802.59;5005471;28;20036;-73
2022/03/28 02:05:15;;;;;;;34.90;16.67;;;;;;;4.49;100.00;102805.19;5006041;28;20064;-73
2022/03/28 02:07:44;;;;;;;33.90;17.05;;;;;;;4.52;100.00;102806.97;5006597;28;20516;-73
2022/03/28 02:10:12;;;;;;;33.47;16.58;;;;;;;4.52;100.00;102799.09;4988512;28;20026;-72
2022/03/28 02:12:37;;;;;;;37.30;17.10;;;;;;;4.51;100.00;102791.25;5006585;28;20030;-72
2022/03/28 02:15:04;;;;;;;34.90;16.25;;;;;;;4.50;100.00;102792.97;5005419;28;20034;-72
2022/03/28 02:17:31;;;;;;;27.92;15.60;;;;;;;4.46;100.00;102781.56;5005698;28;20624;-72
2022/03/28 02:19:57;;;;;;;28.45;16.20;;;;;;;4.48;100.00;102786.84;5010225;28;20057;-72
2022/03/28 02:22:23;;;;;;;34.53;16.55;;;;;;;4.45;100.00;102785.06;5009537;28;20064;-72
2022/03/28 02:24:48;;;;;;;35.78;15.98;;;;;;;4.48;100.00;102787.69;4991016;28;20120;-73
2022/03/28 02:27:15;;;;;;;24.70;15.60;;;;;;;4.52;100.00;102782.50;5008053;28;20072;-73
2022/03/28 02:29:40;;;;;;;34.70;16.77;;;;;;;4.51;100.00;102772.88;4989445;28;20535;-73
2022/03/28 02:32:07;;;;;;;30.60;16.75;;;;;;;4.51;100.00;102772.88;5008095;28;20092;-72
2022/03/28 02:34:32;;;;;;;30.38;16.48;;;;;;;4.54;100.00;102765.91;5007554;28;20045;-73
2022/03/28 02:36:57;;;;;;;28.67;16.27;;;;;;;4.54;100.00;102760.66;4996087;28;20041;-72
2022/03/28 02:39:23;;;;;;;29.05;16.92;;;;;;;4.54;100.00;102749.28;4996895;28;20040;-73
2022/03/28 02:41:49;;;;;;;28.92;16.02;;;;;;;4.54;100.00;102750.19;4996656;28;20041;-73
2022/03/28 02:44:14;;;;;;;27.25;15.18;;;;;;;4.55;100.00;102743.16;4975407;28;20034;-73
2022/03/28 02:46:40;;;;;;;23.48;14.88;;;;;;;4.47;100.00;102743.97;4989554;28;20026;-73
2022/03/28 02:49:06;;;;;;;26.85;14.77;;;;;;;4.44;100.00;102741.31;5009705;28;20041;-73
2022/03/28 02:51:31;;;;;;;24.83;14.73;;;;;;;4.43;100.00;102736.94;5006844;28;20048;-73
2022/03/28 02:53:57;;;;;;;25.48;14.32;;;;;;;4.42;100.00;102724.66;4989866;28;20037;-73
2022/03/28 02:56:22;;;;;;;29.35;15.68;;;;;;;4.45;100.00;102726.44;4991334;28;20073;-73
2022/03/28 02:58:48;;;;;;;27.80;16.10;;;;;;;4.43;100.00;102726.47;5008887;28;20041;-73
2022/03/28 03:01:14;;;;;;;31.65;15.77;;;;;;;4.42;100.00;102722.03;5006876;28;20531;-73
2022/03/28 03:03:40;;;;;;;29.23;15.98;;;;;;;4.43;100.00;102725.56;5008186;28;20091;-73
2022/03/28 03:06:05;;;;;;;25.02;15.38;;;;;;;4.41;100.00;102716.81;5007361;28;20037;-73
2022/03/28 03:08:31;;;;;;;24.63;14.40;;;;;;;4.39;100.00;102714.16;5007605;28;20038;-73
2022/03/28 03:10:56;;;;;;;33.20;16.27;;;;;;;4.35;100.00;102718.50;5009088;28;20038;-73
2022/03/28 03:13:22;;;;;;;29.77;16.45;;;;;;;4.30;100.00;102708.84;4958917;28;20124;-72
2022/03/28 03:15:47;;;;;;;26.02;16.20;;;;;;;4.31;100.00;102710.59;4966964;28;20494;-73
2022/03/28 03:18:13;;;;;;;28.92;15.82;;;;;;;4.33;100.00;102711.47;4966382;28;20117;-73
2022/03/28 03:20:38;;;;;;;26.65;16.13;;;;;;;4.35;100.00;102714.97;4967324;28;20062;-72
2022/03/28 03:23:04;;;;;;;32.97;16.70;;;;;;;4.35;100.00;102708.00;4966958;28;20031;-73
2022/03/28 03:25:29;;;;;;;30.67;16.63;;;;;;;4.38;100.00;102711.50;4968210;28;20097;-72
2022/03/28 03:27:55;;;;;;;32.58;16.10;;;;;;;4.41;100.00;102711.56;4968569;28;20600;-72
2022/03/28 03:30:21;;;;;;;28.02;15.85;;;;;;;4.39;100.00;102705.41;4968037;28;20038;-73
2022/03/28 03:32:46;;;;;;;30.77;16.08;;;;;;;4.39;100.00;102703.66;4967984;28;20049;-73
2022/03/28 03:35:12;;;;;;;27.98;15.35;;;;;;;4.39;100.00;102702.78;4965980;28;20056;-72
2022/03/28 03:37:39;;;;;;;27.48;15.25;;;;;;;4.37;100.00;102705.41;4965943;28;20076;-73
2022/03/28 03:40:05;;;;;;;30.25;16.23;;;;;;;4.37;100.00;102697.53;4968215;28;20035;-72
2022/03/28 03:42:31;;;;;;;30.48;17.15;;;;;;;4.39;100.00;102693.19;4982525;28;20367;-73
2022/03/28 03:44:58;;;;;;;41.45;16.30;;;;;;;4.40;100.00;102688.81;4966167;28;21751;-72
2022/03/28 03:47:23;;;;;;;30.08;14.80;;;;;;;4.39;100.00;102690.56;4982349;28;21882;-72
2022/03/28 03:49:49;;;;;;;32.97;14.10;;;;;;;4.39;100.00;102693.19;4968541;28;20035;-72
2022/03/28 03:52:14;;;;;;;29.55;14.85;;;;;;;4.38;100.00;102696.66;4982389;28;20070;-73
2022/03/28 03:54:40;;;;;;;32.20;15.30;;;;;;;4.34;100.00;102692.25;4971550;28;20041;-73
2022/03/28 03:57:06;;;;;;;32.28;14.63;;;;;;;4.34;100.00;102690.50;4967478;28;20038;-73
2022/03/28 03:59:32;;;;;;;32.30;11.63;;;;;;;4.31;100.00;102689.59;4968968;28;20034;-73
2022/03/28 04:01:57;;;;;;;24.70;11.25;;;;;;;4.26;100.00;102688.66;4968654;28;20368;-73
2022/03/28 04:04:23;;;;;;;29.77;11.63;;;;;;;4.21;100.00;102678.13;4972644;28;20038;-73
2022/03/28 04:06:48;;;;;;;26.75;10.68;;;;;;;4.16;100.00;102680.72;4966234;28;20453;-73
2022/03/28 04:09:14;;;;;;;26.45;13.50;;;;;;;4.15;100.00;102686.78;4969024;28;20035;-73
2022/03/28 04:11:39;;;;;;;21.50;10.10;;;;;;;4.12;100.00;102681.53;4969096;28;20053;-73
2022/03/28 04:14:05;;;;;;;19.23;7.78;;;;;;;4.10;100.00;102682.38;4972165;28;21385;-73
2022/03/28 04:16:31;;;;;;;15.88;7.78;;;;;;;4.06;100.00;102684.09;4986328;28;20085;-73
2022/03/28 04:18:56;;;;;;;18.33;7.20;;;;;;;4.02;100.00;102692.75;5002418;28;20076;-73
2022/03/28 04:21:22;;;;;;;16.20;6.65;;;;;;;4.03;100.00;102684.06;5002005;28;20038;-73
2022/03/28 04:23:47;;;;;;;14.38;6.75;;;;;;;4.02;100.00;102671.78;5001971;28;20768;-73
2022/03/28 04:26:13;;;;;;;13.00;6.32;;;;;;;4.01;100.00;102676.16;5001413;28;20674;-73
2022/03/28 04:28:39;;;;;;;16.63;8.38;;;;;;;3.99;100.00;102669.16;4984819;28;20229;-73
2022/03/28 04:31:05;;;;;;;14.63;8.18;;;;;;;3.97;100.00;102665.63;5002698;28;20505;-73
2022/03/28 04:33:30;;;;;;;10.90;6.20;;;;;;;3.96;100.00;102667.38;4987228;28;20061;-73
2022/03/28 04:35:56;;;;;;;15.02;7.00;;;;;;;3.91;100.00;102651.59;4989343;28;20088;-73
2022/03/28 04:38:24;;;;;;;16.08;6.38;;;;;;;3.90;100.00;102662.06;4986178;28;20030;-73
2022/03/28 04:40:51;;;;;;;14.80;6.03;;;;;;;3.91;100.00;102654.22;4988403;28;20058;-73
2022/03/28 04:43:16;;;;;;;12.75;5.63;;;;;;;3.91;100.00;102654.22;4988167;28;20156;-74
2022/03/28 04:45:42;;;;;;;12.85;5.65;;;;;;;3.92;100.00;102652.50;4986057;28;20412;-74
2022/03/28 04:48:07;;;;;;;11.85;5.63;;;;;;;3.92;100.00;102642.00;4985818;28;20037;-74
2022/03/28 04:50:33;;;;;;;15.48;5.82;;;;;;;3.93;100.00;102636.75;5003037;28;20036;-74
2022/03/28 04:52:59;;;;;;;13.25;6.10;;;;;;;3.94;100.00;102641.13;4987968;28;20072;-73
2022/03/28 04:55:24;;;;;;;14.10;5.70;;;;;;;3.92;100.00;102637.63;4984272;28;20152;-74
2022/03/28 04:57:50;;;;;;;13.63;5.65;;;;;;;3.92;100.00;102631.53;4987699;28;20030;-74
2022/03/28 05:00:16;;;;;;;14.27;6.20;;;;;;;3.94;100.00;102635.03;4987706;28;20046;-74
2022/03/28 05:02:42;;;;;;;13.27;5.90;;;;;;;3.94;100.00;102630.66;4987049;28;20038;-73
2022/03/28 05:05:07;;;;;;;16.27;7.20;;;;;;;4.00;100.00;102632.47;5001059;28;20037;-73
2022/03/28 05:07:35;;;;;;;13.25;5.88;;;;;;;4.03;100.00;102627.25;5001666;28;20117;-73
2022/03/28 05:10:01;;;;;;;15.30;6.35;;;;;;;4.04;100.00;102633.38;4988123;28;20065;-73
2022/03/28 05:12:26;;;;;;;14.75;6.65;;;;;;;4.05;100.00;102635.16;5002257;28;20377;-73
2022/03/28 05:14:53;;;;;;;15.50;6.85;;;;;;;4.03;100.00;102623.78;4992247;28;20042;-73
2022/03/28 05:17:27;;;;;;;18.75;7.68;;;;;;;4.00;100.00;102626.34;4948048;28;20035;-73
2022/03/28 05:19:54;;;;;;;18.40;7.22;;;;;;;3.98;100.00;102625.47;4983011;28;20031;-73
2022/03/28 05:22:20;;;;;;;16.17;6.70;;;;;;;3.95;100.00;102626.31;4967389;28;20121;-73
2022/03/28 05:24:46;;;;;;;19.15;8.00;;;;;;;3.97;100.00;102626.31;4966344;28;20325;-71
2022/03/28 05:27:12;;;;;;;20.55;8.02;;;;;;;3.99;100.00;102624.59;4970762;28;20030;-72
2022/03/28 05:29:38;;;;;;;20.20;7.47;;;;;;;3.99;100.00;102619.34;4966455;28;20139;-72
2022/03/28 05:32:04;;;;;;;19.00;8.07;;;;;;;3.99;100.00;102616.72;4965958;28;20033;-73
2022/03/28 05:34:30;;;;;;;23.40;8.27;;;;;;;4.01;100.00;102609.75;4965144;28;20493;-72
2022/03/28 05:37:06;;;;;;;18.15;8.00;;;;;;;4.01;100.00;102613.25;4949359;28;20120;-72
2022/03/28 05:39:33;;;;;;;15.30;7.30;;;;;;;3.96;100.00;102621.94;4972318;28;20744;-72
2022/03/28 05:41:59;;;;;;;23.08;8.13;;;;;;;3.96;100.00;102619.34;4968294;28;20062;-72
2022/03/28 05:44:25;;;;;;;18.23;7.50;;;;;;;3.94;100.00;102622.78;4968616;28;20173;-72
2022/03/28 05:46:51;;;;;;;23.35;7.85;;;;;;;3.92;100.00;102619.28;4967451;28;20038;-72
2022/03/28 05:49:19;;;;;;;23.65;8.13;;;;;;;3.94;100.00;102617.53;4968067;28;20262;-72
2022/03/28 05:51:45;;;;;;;31.20;9.13;;;;;;;3.94;100.00;102621.94;4967775;28;20037;-73
2022/03/28 05:54:12;;;;;;;22.17;8.52;;;;;;;3.93;100.00;102609.69;4953473;28;20041;-72
2022/03/28 05:56:37;;;;;;;19.15;8.20;;;;;;;3.93;100.00;102612.31;4970827;28;20049;-72
2022/03/28 05:59:03;;;;;;;20.95;8.38;;;;;;;3.92;100.00;102614.03;4984951;28;20026;-72
2022/03/28 06:01:29;;;;;;;19.38;7.50;;;;;;;3.94;100.00;102616.69;4985196;28;20038;-72
2022/03/28 06:03:55;;;;;;;18.10;7.72;;;;;;;3.96;100.00;102619.34;4972587;28;20113;-72
2022/03/28 06:06:20;;;;;;;22.05;8.52;;;;;;;3.97;100.00;102611.47;4970154;28;20092;-72
2022/03/28 06:08:46;;;;;;;20.35;8.30;;;;;;;3.97;100.00;102610.59;4969822;28;20035;-72
2022/03/28 06:11:12;;;;;;;26.98;8.40;;;;;;;3.97;100.00;102621.94;4969901;28;21816;-72
2022/03/28 06:13:37;;;;;;;23.95;8.43;;;;;;;3.99;100.00;102614.09;4973976;28;20026;-72
2022/03/28 06:16:04;;;;;;;20.45;8.60;;;;;;;4.00;100.00;102619.38;4986800;28;20050;-72
2022/03/28 06:18:29;;;;;;;18.38;8.68;;;;;;;4.01;100.00;102612.38;4987596;28;20042;-72
2022/03/28 06:20:55;;;;;;;15.98;7.65;;;;;;;4.02;100.00;102606.25;4989010;28;20042;-72
2022/03/28 06:23:21;;;;;;;18.42;7.63;;;;;;;4.00;100.00;102615.88;4990042;28;20041;-72
2022/03/28 06:25:47;;;;;;;15.35;8.23;;;;;;;4.00;100.00;102615.88;4990200;28;20041;-72
2022/03/28 06:28:15;;;;;;;18.23;8.48;;;;;;;3.98;100.00;102613.22;4989097;28;20433;-72
2022/03/28 06:30:41;;;;;;;24.20;9.50;;;;;;;3.98;100.00;102615.84;4986435;28;20124;-72
2022/03/28 06:33:06;;;;;;;26.38;9.55;;;;;;;4.00;100.00;102613.25;4988848;28;20034;-73
2022/03/28 06:35:32;;;;;;;27.27;10.75;;;;;;;4.00;100.00;102610.63;4967657;28;20076;-72
2022/03/28 06:37:58;;;;;;;25.15;10.35;;;;;;;4.00;100.00;102605.38;4987076;28;20053;-72
2022/03/28 06:40:24;;;;;;;21.63;10.18;;;;;;;4.00;100.00;102605.38;4989724;28;20108;-72
2022/03/28 06:42:49;;;;;;;25.17;10.60;;;;;;;4.02;100.00;102606.25;5004356;28;20060;-73
2022/03/28 06:45:15;;;;;;;20.35;9.40;;;;;;;4.02;100.00;102601.91;4986002;28;20504;-72
2022/03/28 06:47:41;;;;;;;19.98;8.82;;;;;;;4.04;100.00;102594.94;4988285;28;20042;-72
2022/03/28 06:50:07;;;;;;;18.60;9.00;;;;;;;4.04;100.00;102591.44;4988661;28;20056;-72
2022/03/28 06:52:34;;;;;;;21.65;9.68;;;;;;;4.04;100.00;102594.06;5004005;28;20501;-73
2022/03/28 06:55:00;;;;;;;21.85;9.48;;;;;;;4.07;100.00;102596.72;4989658;28;20065;-72
2022/03/28 06:57:26;;;;;;;17.92;8.48;;;;;;;4.05;100.00;102598.44;5003606;28;20153;-73
2022/03/28 06:59:53;;;;;;;21.00;9.00;;;;;;;4.04;100.00;102608.03;4986988;28;20320;-72
2022/03/28 07:02:18;;;;;;;19.17;8.82;;;;;;;4.04;100.00;102604.56;5003286;28;20037;-72
2022/03/28 07:04:44;;;;;;;15.93;7.80;;;;;;;4.04;100.00;102602.78;4987137;28;20037;-72
2022/03/28 07:07:09;;;;;;;15.50;7.13;;;;;;;4.10;100.00;102596.75;4988921;28;20045;-72
2022/03/28 07:09:35;;;;;;;16.60;7.22;;;;;;;4.11;100.00;102600.25;4987201;28;20034;-72
2022/03/28 07:12:03;;;;;;;16.48;6.97;;;;;;;4.11;100.00;102592.38;4988428;28;20038;-72
2022/03/28 07:14:28;;;;;;;18.08;7.40;;;;;;;4.11;100.00;102577.53;4987463;28;20053;-72
2022/03/28 07:16:54;;;;;;;16.27;6.65;;;;;;;4.14;100.00;102577.56;4989593;28;20038;-72
2022/03/28 07:19:19;;;;;;;14.65;6.82;;;;;;;4.16;100.00;102569.72;4954564;28;20036;-72
2022/03/28 07:21:45;;;;;;;19.90;8.18;;;;;;;4.18;100.00;102568.88;4990260;28;20034;-73
2022/03/28 07:24:10;;;;;;;17.13;7.40;;;;;;;4.17;100.00;102559.25;4987743;28;20700;-73
2022/03/28 07:26:36;;;;;;;13.82;6.50;;;;;;;4.14;100.00;102555.72;4986222;28;20037;-73
2022/03/28 07:29:04;;;;;;;16.52;6.78;;;;;;;4.14;100.00;102555.72;4988785;28;20532;-72
2022/03/28 07:31:30;;;;;;;17.02;6.70;;;;;;;4.19;100.00;102554.00;4988838;28;20027;-73
2022/03/28 07:34:29;;;;;;;13.35;5.68;;;;;;;4.21;100.00;102553.16;5002520;28;20040;-72
2022/03/28 07:36:41;;;;;;;12.73;5.93;;;;;;;4.21;100.00;102557.53;4982061;28;20034;-72
2022/03/28 07:39:06;;;;;;;14.35;6.00;;;;;;;4.26;100.00;102560.19;4987435;28;20044;-73
2022/03/28 07:41:32;;;;;;;14.27;6.53;;;;;;;4.33;100.00;102568.13;4986078;28;20547;-72
2022/03/28 07:43:57;;;;;;;14.35;5.90;;;;;;;4.38;100.00;102568.16;4988033;28;20033;-76
2022/03/28 07:46:23;;;;;;;13.63;6.05;;;;;;;4.44;100.00;102568.22;4988821;28;20631;-74
2022/03/28 07:48:48;;;;;;;11.20;5.90;;;;;;;4.51;100.00;102565.63;4987864;28;20176;-77
2022/03/28 07:51:14;;;;;;;12.23;6.30;;;;;;;4.52;100.00;102576.13;4986406;28;20084;-77
2022/03/28 07:53:39;;;;;;;14.75;5.95;;;;;;;4.55;100.00;102562.16;4986718;28;20026;-75
2022/03/28 07:56:05;;;;;;;13.27;6.22;;;;;;;4.54;100.00;102561.28;4989109;28;20037;-73
2022/03/28 07:58:33;;;;;;;11.95;6.00;;;;;;;4.57;100.00;102557.81;5002728;28;21219;-73
2022/03/28 08:00:58;;;;;;;13.07;5.53;;;;;;;4.59;100.00;102548.19;4974529;28;20069;-73
2022/03/28 08:03:24;;;;;;;10.63;5.97;;;;;;;4.60;100.00;102545.59;4988488;28;20496;-72
2022/03/28 08:05:53;;;;;;;11.18;5.35;;;;;;;4.63;100.00;102552.59;4975435;28;20175;-74
2022/03/28 08:08:20;;;;;;;10.85;5.70;;;;;;;4.59;100.00;102556.06;4984796;28;20041;-74
2022/03/28 08:10:45;;;;;;;10.27;5.28;;;;;;;4.59;100.00;102553.44;4985130;28;20065;-75
2022/03/28 08:13:11;;;;;;;8.48;5.40;;;;;;;4.61;100.00;102549.97;4985583;28;20045;-73
2022/03/28 08:15:36;;;;;;;10.73;5.65;;;;;;;4.62;100.00;102551.72;4983780;28;20105;-75
2022/03/28 08:18:02;;;;;;;12.57;6.40;;;;;;;4.66;100.00;102547.38;5004352;28;20035;-73
2022/03/28 08:20:28;;;;;;;11.35;6.43;;;;;;;4.74;100.00;102558.78;5005634;28;20158;-73
2022/03/28 08:22:54;;;;;;;10.95;6.72;;;;;;;4.76;100.00;102543.06;5003808;28;20037;-74
2022/03/28 08:25:20;;;;;;;12.30;6.90;;;;;;;4.78;100.00;102537.84;4967671;28;20507;-73
2022/03/28 08:27:46;;;;;;;14.07;7.20;;;;;;;4.79;100.00;102529.09;4985832;28;20140;-75
2022/03/28 08:30:12;;;;;;;13.68;6.60;;;;;;;4.82;100.00;102531.72;5002115;28;20039;-74
2022/03/28 08:32:40;;;;;;;13.43;6.70;;;;;;;4.84;100.00;102528.22;5003385;28;20435;-74
2022/03/28 08:35:06;;;;;;;12.98;6.88;;;;;;;4.82;100.00;102529.09;5004336;28;20058;-72
2022/03/28 08:37:38;;;;;;;16.52;6.50;;;;;;;4.79;100.00;102524.69;5054640;27;1280984;-74
2022/03/28 08:40:05;;;;;;;11.75;6.90;;;;;;;4.78;100.00;102519.47;5078804;28;20024;-73
2022/03/28 08:42:32;;;;;;;12.07;6.63;;;;;;;4.84;100.00;102516.84;5082396;28;20107;-73
2022/03/28 08:44:59;;;;;;;10.32;6.30;;;;;;;4.93;100.00;102524.78;5048246;28;20135;-73
2022/03/28 08:47:25;;;;;;;11.55;7.05;;;;;;;4.94;100.00;102517.78;5063388;28;20039;-73
2022/03/28 08:49:51;;;;;;;10.43;7.40;;;;;;;4.95;100.00;102520.41;5061568;28;20296;-73
2022/03/28 08:52:17;;;;;;;9.30;6.68;;;;;;;4.97;100.00;102521.28;5080634;28;20040;-73
2022/03/28 08:54:43;;;;;;;11.75;7.43;;;;;;;5.00;100.00;102516.06;5079173;28;20055;-73
2022/03/28 08:57:12;;;;;;;10.15;6.20;;;;;;;5.05;100.00;102521.34;5079720;28;20232;-73
2022/03/28 08:59:37;;;;;;;11.63;6.97;;;;;;;5.03;100.00;102523.09;5064242;28;20024;-73
2022/03/28 09:02:03;;;;;;;9.60;6.13;;;;;;;4.96;100.00;102516.91;5082393;28;20483;-73
2022/03/28 09:04:29;;;;;;;10.18;6.45;;;;;;;5.01;100.00;102523.06;5078233;28;20032;-73
2022/03/28 09:06:57;;;;;;;10.48;6.07;;;;;;;5.07;100.00;102523.97;5052038;28;20028;-73
2022/03/28 09:09:28;;;;;;;13.75;7.80;;;;;;;5.17;100.00;102520.50;5046813;28;20044;-73
2022/03/28 09:12:04;;;;;;;13.73;6.95;;;;;;;5.26;100.00;102514.41;5052319;28;20673;-73
2022/03/28 09:14:32;;;;;;;12.00;7.80;;;;;;;5.24;100.00;102519.66;5062823;28;20031;-75
2022/03/28 09:16:57;;;;;;;12.07;8.23;;;;;;;5.26;100.00;102509.16;5029853;28;20213;-75
2022/03/28 09:19:23;;;;;;;14.75;9.23;;;;;;;5.27;100.00;102511.81;5065133;28;20342;-73
2022/03/28 09:21:52;;;;;;;14.85;9.18;;;;;;;5.33;100.00;102515.34;5049024;28;20032;-74
2022/03/28 09:24:17;;;;;;;14.98;9.57;;;;;;;5.43;100.00;102506.59;5045225;28;20059;-74
2022/03/28 09:26:43;;;;;;;15.45;10.05;;;;;;;5.41;100.00;102509.22;5046921;28;20032;-74
2022/03/28 09:29:08;;;;;;;16.35;10.70;;;;;;;5.41;100.00;102503.09;5065361;28;20591;-74
2022/03/28 09:31:36;;;;;;;18.90;10.57;;;;;;;5.45;100.00;102499.59;5066258;28;20033;-75
2022/03/28 09:34:02;;;;;;;15.18;10.82;;;;;;;5.48;100.00;102502.25;5066639;28;20513;-76
2022/03/28 09:36:51;;;;;;;14.75;10.02;;;;;;;5.52;100.00;102497.88;5043213;28;20064;-76
2022/03/28 09:39:21;;;;;;;15.13;10.50;;;;;;;5.55;100.00;102490.88;5045388;28;20095;-76
2022/03/28 09:42:08;;;;;;;18.42;11.25;;;;;;;5.63;100.00;102492.63;5045838;28;20588;-75
2022/03/28 09:44:53;;;;;;;15.30;10.90;;;;;;;5.67;100.00;102483.88;5042919;28;20047;-78
2022/03/28 09:47:24;;;;;;;15.80;11.48;;;;;;;5.67;100.00;102491.78;5040219;28;20177;-76
2022/03/28 09:49:54;;;;;;;19.25;11.38;;;;;;;5.68;100.00;102491.75;5029908;28;20047;-76
2022/03/28 09:52:22;;;;;;;15.70;11.00;;;;;;;5.77;100.00;102475.13;5032149;28;20112;-76
2022/03/28 09:54:53;;;;;;;16.42;10.23;;;;;;;5.84;100.00;102482.13;5029611;28;20033;-74
2022/03/28 09:57:27;;;;;;;17.52;11.20;;;;;;;5.95;100.00;102482.13;5029401;28;20089;-75
2022/03/28 09:59:54;;;;;;;15.18;11.00;;;;;;;5.98;100.00;102471.63;5027597;28;20048;-74
2022/03/28 10:02:24;;;;;;;16.88;11.50;;;;;;;5.93;100.00;102481.28;5016914;28;20053;-74
2022/03/28 10:04:55;;;;;;;16.13;11.85;;;;;;;5.93;100.00;102476.00;5031257;28;20041;-73
2022/03/28 10:07:21;;;;;;;17.75;12.32;;;;;;;5.94;100.00;102474.28;5016708;28;20036;-73
2022/03/28 10:09:47;;;;;;;16.00;11.82;;;;;;;5.98;100.00;102458.50;5027513;28;21370;-73
2022/03/28 10:12:13;;;;;;;16.67;12.00;;;;;;;6.06;100.00;102471.66;5028307;28;20044;-74
2022/03/28 10:14:39;;;;;;;17.08;13.10;;;;;;;6.13;100.00;102472.53;5028857;28;20033;-73
2022/03/28 10:17:06;;;;;;;17.90;12.40;;;;;;;6.21;100.00;102464.66;5014542;28;20503;-74
2022/03/28 10:19:33;;;;;;;19.73;12.73;;;;;;;6.25;100.00;102466.38;5030367;28;20098;-74
2022/03/28 10:22:02;;;;;;;17.83;13.55;;;;;;;6.27;100.00;102467.28;5033110;28;20029;-74
2022/03/28 10:24:29;;;;;;;19.02;12.63;;;;;;;6.31;100.00;102463.75;5027834;28;20049;-74
2022/03/28 10:26:59;;;;;;;16.63;12.13;;;;;;;6.37;100.00;102466.38;5027639;28;20029;-74
2022/03/28 10:29:38;;;;;;;15.98;12.25;;;;;;;6.41;100.00;102455.81;5046755;28;20036;-74
2022/03/28 10:32:08;;;;;;;15.27;11.95;;;;;;;6.47;100.00;102447.91;5036634;28;20040;-74
2022/03/28 10:34:56;;;;;;;16.67;12.93;;;;;;;6.48;100.00;102428.66;5014163;28;20147;-76
2022/03/28 10:37:40;;;;;;;15.25;11.82;;;;;;;6.56;100.00;102442.66;5027079;28;20060;-75
2022/03/28 10:40:11;;;;;;;16.75;12.27;;;;;;;6.62;100.00;102445.28;5030167;28;20116;-72
2022/03/28 10:42:38;;;;;;;17.08;12.35;;;;;;;6.60;100.00;102449.63;5029706;28;20033;-76
2022/03/28 10:45:11;;;;;;;15.93;12.02;;;;;;;6.65;100.00;102439.13;5030348;28;20436;-76
2022/03/28 10:47:52;;;;;;;16.05;12.80;;;;;;;6.71;100.00;102436.44;5027664;28;20504;-75
2022/03/28 10:50:28;;;;;;;16.92;12.88;;;;;;;6.79;100.00;102439.06;5027639;28;20138;-75
2022/03/28 10:53:04;;;;;;;19.95;13.38;;;;;;;6.90;100.00;102439.00;5030517;28;20051;-75
2022/03/28 10:55:35;;;;;;;17.05;13.93;;;;;;;6.97;100.00;102434.59;5025750;28;20219;-76
2022/03/28 10:58:22;;;;;;;19.77;15.13;;;;;;;7.06;100.00;102434.53;5027837;28;20539;-76
2022/03/28 11:01:06;;;;;;;19.33;15.10;;;;;;;7.13;100.00;102438.91;5030236;28;20261;-74
2022/03/28 11:04:02;;;;;;;16.63;13.50;;;;;;;7.19;100.00;102444.13;5031104;28;20404;-75
2022/03/28 11:07:04;;;;;;;19.23;13.63;;;;;;;7.19;100.00;102430.06;5029427;28;20136;-75
2022/03/28 11:09:34;;;;;;;18.58;14.10;;;;;;;7.29;100.00;102429.16;5027713;28;20029;-75
2022/03/28 11:12:04;;;;;;;18.50;13.80;;;;;;;7.34;100.00;102430.00;5027157;28;20029;-75